< Cyclone 199303 1993 Season Cyclone 199305 >
Cyclone 199304 (OLIVER)
General InformationDetailed Track InformationTrack Information on Google MapsList of All Images || ResourceGoogle EarthGE AnimationAtom FeedGeoJSON
Detalied Best Track Wind (Time Zone = UTC)
Year Month Day Hour Lat. Long. Wind (kt) Gust (kt) Direc. of Major Storm Axis Radius of Major Storm Axis (nm) Radius of Minor Storm Axis (nm) Direc. of Major Gale Axis Radius of Major Gale Axis (nm) Radius of Minor Gale Axis (nm) Image
1993 2 5 00 -14.5 150.0 41 -1 symmetric - - symmetric - - Image
1993 2 5 06 -14.7 150.2 41 -1 symmetric - - symmetric - - Image
1993 2 5 12 -15.0 150.5 45 -1 symmetric - - symmetric - - Image
1993 2 5 18 -15.2 150.8 51 -1 symmetric - - symmetric - - Image
1993 2 6 00 -15.5 151.2 64 -1 symmetric - - symmetric - - Image
1993 2 6 06 -15.7 151.5 70 -1 symmetric - - symmetric - - Image
1993 2 6 12 -15.9 151.8 70 -1 symmetric - - symmetric - - Image
1993 2 6 18 -16.1 152.1 70 -1 symmetric - - symmetric - - Image
1993 2 7 00 -16.4 152.2 80 -1 symmetric - - symmetric - - Image
1993 2 7 06 -16.7 152.1 89 -1 symmetric - - symmetric - - Image
1993 2 7 12 -17.0 152.0 89 -1 symmetric - - symmetric - - Image
1993 2 7 18 -17.3 151.9 89 -1 symmetric - - symmetric - - Image
1993 2 8 00 -17.7 151.9 89 -1 symmetric - - symmetric - - Image
1993 2 8 06 -18.0 151.9 89 -1 symmetric - - symmetric - - Image
1993 2 8 12 -18.3 151.9 89 -1 symmetric - - symmetric - - Image
1993 2 8 18 -18.6 152.0 89 -1 symmetric - - symmetric - - Image
1993 2 9 00 -19.0 152.2 80 -1 symmetric - - symmetric - - Image
1993 2 9 06 -19.3 152.6 76 -1 symmetric - - symmetric - - Image
1993 2 9 12 -19.5 153.2 70 -1 symmetric - - symmetric - - Image
1993 2 9 18 -19.6 153.6 64 -1 symmetric - - symmetric - - Image
1993 2 10 00 -19.7 154.0 64 -1 symmetric - - symmetric - - Image
1993 2 10 06 -19.9 154.4 60 -1 symmetric - - symmetric - - Image
1993 2 10 12 -20.1 154.8 54 -1 symmetric - - symmetric - - Image
1993 2 10 18 -20.3 155.0 51 -1 symmetric - - symmetric - - Image
1993 2 11 00 -20.5 155.3 51 -1 symmetric - - symmetric - - Image
1993 2 11 06 -20.8 155.6 51 -1 symmetric - - symmetric - - Image
1993 2 11 12 -21.1 155.9 51 -1 symmetric - - symmetric - - Image
1993 2 11 18 -21.5 155.9 45 -1 symmetric - - symmetric - - Image
1993 2 12 00 -21.9 155.6 41 -1 symmetric - - symmetric - - Image
1993 2 12 06 -22.2 155.0 33 -1 symmetric - - symmetric - - Image
1993 2 12 12 -22.2 154.4 33 -1 symmetric - - symmetric - - Image
1993 2 12 18 -21.9 154.0 33 -1 symmetric - - symmetric - - Image
< Cyclone 199303 1993 Season Cyclone 199305 >

Help